sensor_id;sensor_type;location;lat;lon;timestamp;P1;durP1;ratioP1;P2;durP2;ratioP2
73779;SDS011;62093;37.614;15.072;2023-09-12T00:00:08;7.03;;;5.05;;
73779;SDS011;62093;37.614;15.072;2023-09-12T00:02:38;6.85;;;4.97;;
73779;SDS011;62093;37.614;15.072;2023-09-12T00:05:04;7.55;;;4.85;;
73779;SDS011;62093;37.614;15.072;2023-09-12T00:07:31;6.97;;;4.70;;
73779;SDS011;62093;37.614;15.072;2023-09-12T00:09:56;7.37;;;4.97;;
73779;SDS011;62093;37.614;15.072;2023-09-12T00:12:23;7.28;;;4.93;;
73779;SDS011;62093;37.614;15.072;2023-09-12T00:14:52;7.53;;;4.90;;
73779;SDS011;62093;37.614;15.072;2023-09-12T00:17:18;7.20;;;5.33;;
73779;SDS011;62093;37.614;15.072;2023-09-12T00:19:44;7.37;;;4.97;;
73779;SDS011;62093;37.614;15.072;2023-09-12T00:22:10;7.05;;;5.03;;
73779;SDS011;62093;37.614;15.072;2023-09-12T00:24:36;6.38;;;4.85;;
73779;SDS011;62093;37.614;15.072;2023-09-12T00:27:03;7.13;;;5.00;;
73779;SDS011;62093;37.614;15.072;2023-09-12T00:29:30;7.07;;;4.90;;
73779;SDS011;62093;37.614;15.072;2023-09-12T00:31:56;6.80;;;4.73;;
73779;SDS011;62093;37.614;15.072;2023-09-12T00:34:22;7.10;;;5.15;;
73779;SDS011;62093;37.614;15.072;2023-09-12T00:36:48;6.72;;;4.50;;
73779;SDS011;62093;37.614;15.072;2023-09-12T00:39:13;6.77;;;4.77;;
73779;SDS011;62093;37.614;15.072;2023-09-12T00:41:39;6.82;;;5.00;;
73779;SDS011;62093;37.614;15.072;2023-09-12T00:44:05;6.70;;;4.72;;
73779;SDS011;62093;37.614;15.072;2023-09-12T00:46:31;6.35;;;4.65;;
73779;SDS011;62093;37.614;15.072;2023-09-12T00:48:58;7.73;;;5.17;;
73779;SDS011;62093;37.614;15.072;2023-09-12T00:51:25;6.72;;;4.70;;
73779;SDS011;62093;37.614;15.072;2023-09-12T00:53:52;6.70;;;4.85;;
73779;SDS011;62093;37.614;15.072;2023-09-12T00:56:19;7.18;;;4.75;;
73779;SDS011;62093;37.614;15.072;2023-09-12T00:58:45;6.90;;;4.90;;
73779;SDS011;62093;37.614;15.072;2023-09-12T01:01:11;6.70;;;4.60;;
73779;SDS011;62093;37.614;15.072;2023-09-12T01:03:37;7.15;;;4.72;;
73779;SDS011;62093;37.614;15.072;2023-09-12T01:06:03;7.30;;;5.10;;
73779;SDS011;62093;37.614;15.072;2023-09-12T01:08:32;7.20;;;4.70;;
73779;SDS011;62093;37.614;15.072;2023-09-12T01:10:58;7.20;;;5.30;;
73779;SDS011;62093;37.614;15.072;2023-09-12T01:13:24;6.40;;;4.60;;
73779;SDS011;62093;37.614;15.072;2023-09-12T01:15:50;7.22;;;4.60;;
73779;SDS011;62093;37.614;15.072;2023-09-12T01:18:16;6.70;;;4.68;;
73779;SDS011;62093;37.614;15.072;2023-09-12T01:20:46;7.15;;;4.80;;
73779;SDS011;62093;37.614;15.072;2023-09-12T01:26:17;7.00;;;4.55;;
73779;SDS011;62093;37.614;15.072;2023-09-12T01:28:54;6.55;;;4.75;;
73779;SDS011;62093;37.614;15.072;2023-09-12T01:31:22;6.60;;;4.50;;
73779;SDS011;62093;37.614;15.072;2023-09-12T01:33:54;6.97;;;5.00;;
73779;SDS011;62093;37.614;15.072;2023-09-12T01:36:21;6.93;;;4.90;;
73779;SDS011;62093;37.614;15.072;2023-09-12T01:38:47;7.28;;;5.00;;
73779;SDS011;62093;37.614;15.072;2023-09-12T01:41:13;6.72;;;4.50;;
73779;SDS011;62093;37.614;15.072;2023-09-12T01:43:39;6.53;;;4.70;;
73779;SDS011;62093;37.614;15.072;2023-09-12T01:46:08;7.45;;;5.18;;
73779;SDS011;62093;37.614;15.072;2023-09-12T01:48:34;6.63;;;4.70;;
73779;SDS011;62093;37.614;15.072;2023-09-12T01:51:02;6.93;;;4.45;;
73779;SDS011;62093;37.614;15.072;2023-09-12T01:53:29;6.75;;;4.82;;
73779;SDS011;62093;37.614;15.072;2023-09-12T01:55:57;7.13;;;4.90;;
73779;SDS011;62093;37.614;15.072;2023-09-12T01:58:25;7.33;;;4.63;;
73779;SDS011;62093;37.614;15.072;2023-09-12T02:00:51;7.00;;;4.20;;
73779;SDS011;62093;37.614;15.072;2023-09-12T02:03:17;7.10;;;5.20;;
73779;SDS011;62093;37.614;15.072;2023-09-12T02:05:43;6.53;;;4.57;;
73779;SDS011;62093;37.614;15.072;2023-09-12T02:08:09;6.60;;;4.60;;
73779;SDS011;62093;37.614;15.072;2023-09-12T02:10:35;6.95;;;4.78;;
73779;SDS011;62093;37.614;15.072;2023-09-12T02:13:01;7.10;;;4.72;;
73779;SDS011;62093;37.614;15.072;2023-09-12T02:15:27;7.10;;;4.82;;
73779;SDS011;62093;37.614;15.072;2023-09-12T02:17:53;6.30;;;4.67;;
73779;SDS011;62093;37.614;15.072;2023-09-12T02:20:19;6.75;;;4.53;;
73779;SDS011;62093;37.614;15.072;2023-09-12T02:22:46;6.47;;;4.60;;
73779;SDS011;62093;37.614;15.072;2023-09-12T02:25:12;6.68;;;4.43;;
73779;SDS011;62093;37.614;15.072;2023-09-12T02:27:38;7.30;;;4.80;;
73779;SDS011;62093;37.614;15.072;2023-09-12T02:30:04;7.25;;;4.80;;
73779;SDS011;62093;37.614;15.072;2023-09-12T02:32:31;6.75;;;4.95;;
73779;SDS011;62093;37.614;15.072;2023-09-12T02:34:57;6.28;;;4.43;;
73779;SDS011;62093;37.614;15.072;2023-09-12T02:37:23;7.87;;;4.67;;
73779;SDS011;62093;37.614;15.072;2023-09-12T02:39:50;6.38;;;4.32;;
73779;SDS011;62093;37.614;15.072;2023-09-12T02:42:16;6.85;;;4.60;;
73779;SDS011;62093;37.614;15.072;2023-09-12T02:44:42;6.90;;;4.63;;
73779;SDS011;62093;37.614;15.072;2023-09-12T02:47:08;6.97;;;4.27;;
73779;SDS011;62093;37.614;15.072;2023-09-12T02:49:34;6.83;;;4.73;;
73779;SDS011;62093;37.614;15.072;2023-09-12T02:52:00;7.18;;;4.72;;
73779;SDS011;62093;37.614;15.072;2023-09-12T02:54:26;6.25;;;4.45;;
73779;SDS011;62093;37.614;15.072;2023-09-12T02:56:52;6.73;;;4.70;;
73779;SDS011;62093;37.614;15.072;2023-09-12T02:59:18;6.95;;;4.50;;
73779;SDS011;62093;37.614;15.072;2023-09-12T03:01:44;6.90;;;4.75;;
73779;SDS011;62093;37.614;15.072;2023-09-12T03:04:10;6.72;;;4.68;;
73779;SDS011;62093;37.614;15.072;2023-09-12T03:06:36;6.90;;;4.60;;
73779;SDS011;62093;37.614;15.072;2023-09-12T03:09:03;6.85;;;5.00;;
73779;SDS011;62093;37.614;15.072;2023-09-12T03:11:29;7.00;;;4.43;;
73779;SDS011;62093;37.614;15.072;2023-09-12T03:13:55;6.38;;;4.50;;
73779;SDS011;62093;37.614;15.072;2023-09-12T03:16:21;6.67;;;4.80;;
73779;SDS011;62093;37.614;15.072;2023-09-12T03:18:49;6.63;;;4.70;;
73779;SDS011;62093;37.614;15.072;2023-09-12T03:21:15;7.10;;;4.85;;
73779;SDS011;62093;37.614;15.072;2023-09-12T03:23:41;6.47;;;4.82;;
73779;SDS011;62093;37.614;15.072;2023-09-12T03:26:08;6.35;;;4.57;;
73779;SDS011;62093;37.614;15.072;2023-09-12T03:28:35;7.45;;;4.45;;
73779;SDS011;62093;37.614;15.072;2023-09-12T03:31:08;6.70;;;4.50;;
73779;SDS011;62093;37.614;15.072;2023-09-12T03:33:38;6.72;;;4.57;;
73779;SDS011;62093;37.614;15.072;2023-09-12T03:36:04;6.60;;;4.70;;
73779;SDS011;62093;37.614;15.072;2023-09-12T03:38:32;6.72;;;4.88;;
73779;SDS011;62093;37.614;15.072;2023-09-12T03:40:58;6.88;;;4.63;;
73779;SDS011;62093;37.614;15.072;2023-09-12T03:43:25;6.00;;;4.20;;
73779;SDS011;62093;37.614;15.072;2023-09-12T03:45:51;6.95;;;4.57;;
73779;SDS011;62093;37.614;15.072;2023-09-12T03:48:17;6.70;;;4.45;;
73779;SDS011;62093;37.614;15.072;2023-09-12T03:50:44;6.30;;;4.30;;
73779;SDS011;62093;37.614;15.072;2023-09-12T03:53:10;6.87;;;4.77;;
73779;SDS011;62093;37.614;15.072;2023-09-12T03:55:36;6.40;;;4.47;;
73779;SDS011;62093;37.614;15.072;2023-09-12T03:58:03;6.68;;;4.60;;
73779;SDS011;62093;37.614;15.072;2023-09-12T04:00:29;6.30;;;4.50;;
73779;SDS011;62093;37.614;15.072;2023-09-12T04:02:55;6.20;;;4.13;;
73779;SDS011;62093;37.614;15.072;2023-09-12T04:05:22;6.80;;;4.60;;
73779;SDS011;62093;37.614;15.072;2023-09-12T04:07:48;6.90;;;4.57;;
73779;SDS011;62093;37.614;15.072;2023-09-12T04:10:14;6.97;;;4.70;;
73779;SDS011;62093;37.614;15.072;2023-09-12T04:12:41;6.32;;;4.38;;
73779;SDS011;62093;37.614;15.072;2023-09-12T04:15:07;6.33;;;4.63;;
73779;SDS011;62093;37.614;15.072;2023-09-12T04:17:33;6.75;;;4.10;;
73779;SDS011;62093;37.614;15.072;2023-09-12T04:19:59;6.43;;;4.45;;
73779;SDS011;62093;37.614;15.072;2023-09-12T04:22:25;6.20;;;4.30;;
73779;SDS011;62093;37.614;15.072;2023-09-12T04:24:51;6.33;;;4.30;;
73779;SDS011;62093;37.614;15.072;2023-09-12T04:27:17;6.40;;;4.10;;
73779;SDS011;62093;37.614;15.072;2023-09-12T04:29:43;6.47;;;4.40;;
73779;SDS011;62093;37.614;15.072;2023-09-12T04:32:11;5.95;;;3.85;;
73779;SDS011;62093;37.614;15.072;2023-09-12T04:34:37;6.72;;;4.28;;
73779;SDS011;62093;37.614;15.072;2023-09-12T04:37:03;6.53;;;4.47;;
73779;SDS011;62093;37.614;15.072;2023-09-12T04:39:31;5.63;;;3.83;;
73779;SDS011;62093;37.614;15.072;2023-09-12T04:41:57;6.45;;;4.13;;
73779;SDS011;62093;37.614;15.072;2023-09-12T04:44:23;6.25;;;4.30;;
73779;SDS011;62093;37.614;15.072;2023-09-12T04:46:50;6.63;;;4.27;;
73779;SDS011;62093;37.614;15.072;2023-09-12T04:49:16;6.32;;;4.38;;
73779;SDS011;62093;37.614;15.072;2023-09-12T04:51:43;6.10;;;4.20;;
73779;SDS011;62093;37.614;15.072;2023-09-12T04:54:09;5.90;;;4.00;;
73779;SDS011;62093;37.614;15.072;2023-09-12T04:56:36;6.32;;;4.45;;
73779;SDS011;62093;37.614;15.072;2023-09-12T04:59:01;5.97;;;3.90;;
73779;SDS011;62093;37.614;15.072;2023-09-12T05:01:27;6.45;;;4.35;;
73779;SDS011;62093;37.614;15.072;2023-09-12T05:03:55;6.50;;;4.55;;
73779;SDS011;62093;37.614;15.072;2023-09-12T05:06:21;6.00;;;4.00;;
73779;SDS011;62093;37.614;15.072;2023-09-12T05:08:48;5.95;;;4.00;;
73779;SDS011;62093;37.614;15.072;2023-09-12T05:11:15;5.97;;;4.00;;
73779;SDS011;62093;37.614;15.072;2023-09-12T05:13:42;6.90;;;4.53;;
73779;SDS011;62093;37.614;15.072;2023-09-12T05:16:13;6.60;;;4.10;;
73779;SDS011;62093;37.614;15.072;2023-09-12T05:18:39;6.20;;;4.03;;
73779;SDS011;62093;37.614;15.072;2023-09-12T05:21:05;6.50;;;4.18;;
73779;SDS011;62093;37.614;15.072;2023-09-12T05:23:31;6.47;;;4.20;;
73779;SDS011;62093;37.614;15.072;2023-09-12T05:25:57;6.28;;;4.32;;
73779;SDS011;62093;37.614;15.072;2023-09-12T05:28:24;6.22;;;4.50;;
73779;SDS011;62093;37.614;15.072;2023-09-12T05:30:52;6.47;;;4.30;;
73779;SDS011;62093;37.614;15.072;2023-09-12T05:33:19;5.82;;;3.88;;
73779;SDS011;62093;37.614;15.072;2023-09-12T05:35:47;6.10;;;4.03;;
73779;SDS011;62093;37.614;15.072;2023-09-12T05:38:14;6.03;;;3.90;;
73779;SDS011;62093;37.614;15.072;2023-09-12T05:40:40;6.63;;;4.30;;
73779;SDS011;62093;37.614;15.072;2023-09-12T05:43:06;6.40;;;3.90;;
73779;SDS011;62093;37.614;15.072;2023-09-12T05:45:32;6.50;;;4.00;;
73779;SDS011;62093;37.614;15.072;2023-09-12T05:47:59;5.90;;;3.97;;
73779;SDS011;62093;37.614;15.072;2023-09-12T05:50:26;6.13;;;4.07;;
73779;SDS011;62093;37.614;15.072;2023-09-12T05:52:53;5.93;;;3.83;;
73779;SDS011;62093;37.614;15.072;2023-09-12T05:55:19;6.20;;;3.65;;
73779;SDS011;62093;37.614;15.072;2023-09-12T05:57:45;6.00;;;3.72;;
73779;SDS011;62093;37.614;15.072;2023-09-12T06:00:13;6.67;;;4.00;;
73779;SDS011;62093;37.614;15.072;2023-09-12T06:02:42;5.50;;;3.83;;
73779;SDS011;62093;37.614;15.072;2023-09-12T06:05:08;6.57;;;4.50;;
73779;SDS011;62093;37.614;15.072;2023-09-12T06:07:34;6.15;;;3.92;;
73779;SDS011;62093;37.614;15.072;2023-09-12T06:10:01;6.57;;;4.10;;
73779;SDS011;62093;37.614;15.072;2023-09-12T06:12:27;6.57;;;3.90;;
73779;SDS011;62093;37.614;15.072;2023-09-12T06:14:53;6.15;;;4.10;;
73779;SDS011;62093;37.614;15.072;2023-09-12T06:17:21;5.97;;;3.95;;
73779;SDS011;62093;37.614;15.072;2023-09-12T06:19:48;6.50;;;4.13;;
73779;SDS011;62093;37.614;15.072;2023-09-12T06:22:17;6.00;;;4.05;;
73779;SDS011;62093;37.614;15.072;2023-09-12T06:24:44;6.80;;;4.30;;
73779;SDS011;62093;37.614;15.072;2023-09-12T06:27:10;5.88;;;4.15;;
73779;SDS011;62093;37.614;15.072;2023-09-12T06:29:39;5.80;;;3.92;;
73779;SDS011;62093;37.614;15.072;2023-09-12T06:32:04;6.10;;;3.70;;
73779;SDS011;62093;37.614;15.072;2023-09-12T06:34:30;6.67;;;4.00;;
73779;SDS011;62093;37.614;15.072;2023-09-12T06:36:57;6.75;;;4.57;;
73779;SDS011;62093;37.614;15.072;2023-09-12T06:39:33;6.43;;;3.90;;
73779;SDS011;62093;37.614;15.072;2023-09-12T06:42:08;5.90;;;3.97;;
73779;SDS011;62093;37.614;15.072;2023-09-12T06:44:47;6.17;;;3.90;;
73779;SDS011;62093;37.614;15.072;2023-09-12T06:47:24;5.97;;;4.00;;
73779;SDS011;62093;37.614;15.072;2023-09-12T06:50:12;6.38;;;3.95;;
73779;SDS011;62093;37.614;15.072;2023-09-12T06:52:48;6.68;;;4.47;;
73779;SDS011;62093;37.614;15.072;2023-09-12T06:55:30;6.25;;;4.28;;
73779;SDS011;62093;37.614;15.072;2023-09-12T06:58:02;6.10;;;4.00;;
73779;SDS011;62093;37.614;15.072;2023-09-12T07:00:40;6.63;;;4.25;;
73779;SDS011;62093;37.614;15.072;2023-09-12T07:03:35;6.28;;;3.92;;
73779;SDS011;62093;37.614;15.072;2023-09-12T07:06:38;5.50;;;3.78;;
73779;SDS011;62093;37.614;15.072;2023-09-12T07:09:16;6.00;;;3.90;;
73779;SDS011;62093;37.614;15.072;2023-09-12T07:12:03;5.80;;;3.60;;
73779;SDS011;62093;37.614;15.072;2023-09-12T07:14:31;5.88;;;3.90;;
73779;SDS011;62093;37.614;15.072;2023-09-12T07:16:58;6.18;;;4.10;;
73779;SDS011;62093;37.614;15.072;2023-09-12T07:19:24;5.63;;;3.60;;
73779;SDS011;62093;37.614;15.072;2023-09-12T07:21:49;6.10;;;4.27;;
73779;SDS011;62093;37.614;15.072;2023-09-12T07:24:15;6.67;;;4.37;;
73779;SDS011;62093;37.614;15.072;2023-09-12T07:26:41;6.05;;;3.95;;
73779;SDS011;62093;37.614;15.072;2023-09-12T07:29:08;6.63;;;4.28;;
73779;SDS011;62093;37.614;15.072;2023-09-12T07:31:35;5.88;;;3.80;;
73779;SDS011;62093;37.614;15.072;2023-09-12T07:34:01;6.20;;;3.90;;
73779;SDS011;62093;37.614;15.072;2023-09-12T07:36:27;6.18;;;4.13;;
73779;SDS011;62093;37.614;15.072;2023-09-12T07:41:40;6.40;;;4.30;;
73779;SDS011;62093;37.614;15.072;2023-09-12T07:44:06;5.57;;;3.70;;
73779;SDS011;62093;37.614;15.072;2023-09-12T07:46:37;6.33;;;3.73;;
73779;SDS011;62093;37.614;15.072;2023-09-12T07:49:03;6.80;;;3.65;;
73779;SDS011;62093;37.614;15.072;2023-09-12T07:51:29;5.97;;;4.00;;
73779;SDS011;62093;37.614;15.072;2023-09-12T07:53:55;5.78;;;3.75;;
73779;SDS011;62093;37.614;15.072;2023-09-12T07:56:21;5.77;;;3.87;;
73779;SDS011;62093;37.614;15.072;2023-09-12T07:58:48;6.10;;;4.10;;
73779;SDS011;62093;37.614;15.072;2023-09-12T08:01:14;6.65;;;3.70;;
73779;SDS011;62093;37.614;15.072;2023-09-12T08:03:42;5.85;;;3.75;;
73779;SDS011;62093;37.614;15.072;2023-09-12T08:06:08;5.68;;;3.65;;
73779;SDS011;62093;37.614;15.072;2023-09-12T08:08:35;5.63;;;3.80;;
73779;SDS011;62093;37.614;15.072;2023-09-12T08:11:01;6.30;;;3.67;;
73779;SDS011;62093;37.614;15.072;2023-09-12T08:13:28;5.80;;;3.80;;
73779;SDS011;62093;37.614;15.072;2023-09-12T08:15:55;5.82;;;3.83;;
73779;SDS011;62093;37.614;15.072;2023-09-12T08:18:25;6.28;;;4.07;;
73779;SDS011;62093;37.614;15.072;2023-09-12T08:20:54;6.23;;;3.60;;
73779;SDS011;62093;37.614;15.072;2023-09-12T08:23:20;6.43;;;3.85;;
73779;SDS011;62093;37.614;15.072;2023-09-12T08:25:46;6.03;;;3.88;;
73779;SDS011;62093;37.614;15.072;2023-09-12T08:28:12;5.63;;;3.72;;
73779;SDS011;62093;37.614;15.072;2023-09-12T08:30:38;5.80;;;3.67;;
73779;SDS011;62093;37.614;15.072;2023-09-12T08:33:04;5.37;;;3.37;;
73779;SDS011;62093;37.614;15.072;2023-09-12T08:35:32;5.88;;;3.90;;
73779;SDS011;62093;37.614;15.072;2023-09-12T08:37:58;5.05;;;3.35;;
73779;SDS011;62093;37.614;15.072;2023-09-12T08:40:24;5.88;;;3.60;;
73779;SDS011;62093;37.614;15.072;2023-09-12T08:42:51;5.72;;;3.95;;
73779;SDS011;62093;37.614;15.072;2023-09-12T08:45:19;5.87;;;3.33;;
73779;SDS011;62093;37.614;15.072;2023-09-12T08:47:50;5.95;;;3.88;;
73779;SDS011;62093;37.614;15.072;2023-09-12T08:50:20;5.40;;;3.38;;
73779;SDS011;62093;37.614;15.072;2023-09-12T08:52:48;5.97;;;3.90;;
73779;SDS011;62093;37.614;15.072;2023-09-12T08:55:14;6.20;;;3.58;;
73779;SDS011;62093;37.614;15.072;2023-09-12T08:57:41;5.40;;;3.40;;
73779;SDS011;62093;37.614;15.072;2023-09-12T09:00:08;5.82;;;3.72;;
73779;SDS011;62093;37.614;15.072;2023-09-12T09:02:38;5.75;;;3.80;;
73779;SDS011;62093;37.614;15.072;2023-09-12T09:05:05;5.15;;;3.22;;
73779;SDS011;62093;37.614;15.072;2023-09-12T09:07:33;5.72;;;3.72;;
73779;SDS011;62093;37.614;15.072;2023-09-12T09:10:03;5.53;;;3.33;;
73779;SDS011;62093;37.614;15.072;2023-09-12T09:12:31;5.03;;;3.17;;
73779;SDS011;62093;37.614;15.072;2023-09-12T09:14:57;5.60;;;3.45;;
73779;SDS011;62093;37.614;15.072;2023-09-12T09:17:24;5.80;;;3.97;;
73779;SDS011;62093;37.614;15.072;2023-09-12T09:19:50;5.53;;;3.22;;
73779;SDS011;62093;37.614;15.072;2023-09-12T09:22:16;5.40;;;3.50;;
73779;SDS011;62093;37.614;15.072;2023-09-12T09:24:42;5.50;;;3.65;;
73779;SDS011;62093;37.614;15.072;2023-09-12T09:27:07;5.45;;;3.50;;
73779;SDS011;62093;37.614;15.072;2023-09-12T09:29:45;5.67;;;3.43;;
73779;SDS011;62093;37.614;15.072;2023-09-12T09:32:19;5.43;;;3.40;;
73779;SDS011;62093;37.614;15.072;2023-09-12T09:34:47;5.78;;;3.70;;
73779;SDS011;62093;37.614;15.072;2023-09-12T09:37:13;5.53;;;3.60;;
73779;SDS011;62093;37.614;15.072;2023-09-12T09:39:40;5.38;;;3.28;;
73779;SDS011;62093;37.614;15.072;2023-09-12T09:42:09;5.70;;;3.47;;
73779;SDS011;62093;37.614;15.072;2023-09-12T09:44:37;5.43;;;3.40;;
73779;SDS011;62093;37.614;15.072;2023-09-12T09:47:03;5.75;;;3.72;;
73779;SDS011;62093;37.614;15.072;2023-09-12T09:49:32;5.43;;;3.30;;
73779;SDS011;62093;37.614;15.072;2023-09-12T09:52:03;6.10;;;4.07;;
73779;SDS011;62093;37.614;15.072;2023-09-12T09:54:30;5.38;;;3.40;;
73779;SDS011;62093;37.614;15.072;2023-09-12T09:56:56;5.72;;;4.00;;
73779;SDS011;62093;37.614;15.072;2023-09-12T09:59:27;6.22;;;4.00;;
73779;SDS011;62093;37.614;15.072;2023-09-12T10:01:56;5.20;;;3.15;;
73779;SDS011;62093;37.614;15.072;2023-09-12T10:04:23;5.33;;;3.43;;
73779;SDS011;62093;37.614;15.072;2023-09-12T10:06:51;5.63;;;3.25;;
73779;SDS011;62093;37.614;15.072;2023-09-12T10:09:22;5.30;;;3.53;;
73779;SDS011;62093;37.614;15.072;2023-09-12T10:11:50;5.80;;;3.55;;
73779;SDS011;62093;37.614;15.072;2023-09-12T10:14:18;5.53;;;3.50;;
73779;SDS011;62093;37.614;15.072;2023-09-12T10:16:46;5.30;;;3.40;;
73779;SDS011;62093;37.614;15.072;2023-09-12T10:19:22;5.75;;;3.92;;
73779;SDS011;62093;37.614;15.072;2023-09-12T10:24:41;5.80;;;3.60;;
73779;SDS011;62093;37.614;15.072;2023-09-12T10:27:09;5.35;;;3.42;;
73779;SDS011;62093;37.614;15.072;2023-09-12T10:29:38;5.53;;;3.53;;
73779;SDS011;62093;37.614;15.072;2023-09-12T10:32:04;5.88;;;3.60;;
73779;SDS011;62093;37.614;15.072;2023-09-12T10:34:30;5.55;;;3.63;;
73779;SDS011;62093;37.614;15.072;2023-09-12T10:36:58;5.88;;;3.90;;
73779;SDS011;62093;37.614;15.072;2023-09-12T10:39:29;5.95;;;3.50;;
73779;SDS011;62093;37.614;15.072;2023-09-12T10:41:58;5.70;;;3.60;;
73779;SDS011;62093;37.614;15.072;2023-09-12T10:44:24;5.70;;;3.97;;
73779;SDS011;62093;37.614;15.072;2023-09-12T10:46:51;5.93;;;3.70;;
73779;SDS011;62093;37.614;15.072;2023-09-12T10:49:21;6.25;;;3.80;;
73779;SDS011;62093;37.614;15.072;2023-09-12T10:51:48;5.85;;;3.75;;
73779;SDS011;62093;37.614;15.072;2023-09-12T10:54:15;6.03;;;3.80;;
73779;SDS011;62093;37.614;15.072;2023-09-12T10:59:36;6.00;;;3.80;;
73779;SDS011;62093;37.614;15.072;2023-09-12T11:04:58;5.65;;;3.67;;
73779;SDS011;62093;37.614;15.072;2023-09-12T11:12:42;6.50;;;3.92;;
73779;SDS011;62093;37.614;15.072;2023-09-12T11:15:08;5.47;;;3.70;;
73779;SDS011;62093;37.614;15.072;2023-09-12T11:17:39;5.72;;;3.65;;
73779;SDS011;62093;37.614;15.072;2023-09-12T11:20:09;5.77;;;3.53;;
73779;SDS011;62093;37.614;15.072;2023-09-12T11:22:36;5.50;;;3.40;;
73779;SDS011;62093;37.614;15.072;2023-09-12T11:30:20;5.63;;;3.58;;
73779;SDS011;62093;37.614;15.072;2023-09-12T11:32:48;5.87;;;3.40;;
73779;SDS011;62093;37.614;15.072;2023-09-12T11:35:16;5.90;;;3.85;;
73779;SDS011;62093;37.614;15.072;2023-09-12T11:37:49;5.70;;;3.42;;
73779;SDS011;62093;37.614;15.072;2023-09-12T11:40:23;5.50;;;3.42;;
73779;SDS011;62093;37.614;15.072;2023-09-12T11:43:06;6.45;;;3.70;;
73779;SDS011;62093;37.614;15.072;2023-09-12T11:45:34;5.33;;;3.63;;
73779;SDS011;62093;37.614;15.072;2023-09-12T11:48:00;5.72;;;3.58;;
73779;SDS011;62093;37.614;15.072;2023-09-12T11:50:35;5.88;;;3.70;;
73779;SDS011;62093;37.614;15.072;2023-09-12T11:53:05;5.50;;;3.72;;
73779;SDS011;62093;37.614;15.072;2023-09-12T11:55:55;5.68;;;3.75;;
73779;SDS011;62093;37.614;15.072;2023-09-12T11:58:28;5.40;;;3.43;;
73779;SDS011;62093;37.614;15.072;2023-09-12T12:00:54;5.95;;;3.50;;
73779;SDS011;62093;37.614;15.072;2023-09-12T12:03:22;5.70;;;3.38;;
73779;SDS011;62093;37.614;15.072;2023-09-12T12:05:49;5.63;;;3.65;;
73779;SDS011;62093;37.614;15.072;2023-09-12T12:08:16;6.13;;;3.80;;
73779;SDS011;62093;37.614;15.072;2023-09-12T12:10:43;6.00;;;3.70;;
73779;SDS011;62093;37.614;15.072;2023-09-12T12:13:18;6.00;;;3.70;;
73779;SDS011;62093;37.614;15.072;2023-09-12T12:15:45;5.75;;;3.80;;
73779;SDS011;62093;37.614;15.072;2023-09-12T12:18:12;5.65;;;3.70;;
73779;SDS011;62093;37.614;15.072;2023-09-12T12:20:38;5.82;;;3.78;;
73779;SDS011;62093;37.614;15.072;2023-09-12T12:23:04;5.60;;;3.63;;
73779;SDS011;62093;37.614;15.072;2023-09-12T12:25:33;5.40;;;3.80;;
73779;SDS011;62093;37.614;15.072;2023-09-12T12:28:00;5.30;;;3.22;;
73779;SDS011;62093;37.614;15.072;2023-09-12T12:30:30;5.38;;;3.28;;
73779;SDS011;62093;37.614;15.072;2023-09-12T12:32:59;5.72;;;3.78;;
73779;SDS011;62093;37.614;15.072;2023-09-12T12:35:28;5.60;;;3.70;;
73779;SDS011;62093;37.614;15.072;2023-09-12T12:37:55;6.15;;;3.72;;
73779;SDS011;62093;37.614;15.072;2023-09-12T12:40:22;5.97;;;3.53;;
73779;SDS011;62093;37.614;15.072;2023-09-12T12:42:48;5.82;;;3.60;;
73779;SDS011;62093;37.614;15.072;2023-09-12T12:45:16;5.75;;;3.70;;
73779;SDS011;62093;37.614;15.072;2023-09-12T12:47:44;5.47;;;3.27;;
73779;SDS011;62093;37.614;15.072;2023-09-12T12:50:17;5.72;;;3.63;;
73779;SDS011;62093;37.614;15.072;2023-09-12T12:52:46;5.80;;;3.78;;
73779;SDS011;62093;37.614;15.072;2023-09-12T12:55:14;5.50;;;3.50;;
73779;SDS011;62093;37.614;15.072;2023-09-12T12:57:42;5.60;;;3.65;;
73779;SDS011;62093;37.614;15.072;2023-09-12T13:00:10;5.90;;;3.93;;
73779;SDS011;62093;37.614;15.072;2023-09-12T13:02:39;5.63;;;3.60;;
73779;SDS011;62093;37.614;15.072;2023-09-12T13:05:06;5.45;;;3.60;;
73779;SDS011;62093;37.614;15.072;2023-09-12T13:07:44;5.68;;;3.67;;
73779;SDS011;62093;37.614;15.072;2023-09-12T13:10:10;5.72;;;3.50;;
73779;SDS011;62093;37.614;15.072;2023-09-12T13:12:37;5.27;;;3.33;;
73779;SDS011;62093;37.614;15.072;2023-09-12T13:15:04;6.25;;;3.88;;
73779;SDS011;62093;37.614;15.072;2023-09-12T13:17:30;5.70;;;3.45;;
73779;SDS011;62093;37.614;15.072;2023-09-12T13:19:56;6.00;;;3.40;;
73779;SDS011;62093;37.614;15.072;2023-09-12T13:22:22;5.60;;;3.33;;
73779;SDS011;62093;37.614;15.072;2023-09-12T13:24:48;5.38;;;3.33;;
73779;SDS011;62093;37.614;15.072;2023-09-12T13:27:14;6.30;;;3.58;;
73779;SDS011;62093;37.614;15.072;2023-09-12T13:29:40;5.30;;;3.30;;
73779;SDS011;62093;37.614;15.072;2023-09-12T13:32:06;5.97;;;3.80;;
73779;SDS011;62093;37.614;15.072;2023-09-12T13:34:32;5.30;;;3.43;;
73779;SDS011;62093;37.614;15.072;2023-09-12T13:36:58;5.75;;;3.63;;
73779;SDS011;62093;37.614;15.072;2023-09-12T13:39:24;6.97;;;3.60;;
73779;SDS011;62093;37.614;15.072;2023-09-12T13:41:50;5.93;;;3.42;;
73779;SDS011;62093;37.614;15.072;2023-09-12T13:44:17;5.55;;;3.45;;
73779;SDS011;62093;37.614;15.072;2023-09-12T13:46:43;5.57;;;3.40;;
73779;SDS011;62093;37.614;15.072;2023-09-12T13:49:12;5.90;;;3.50;;
73779;SDS011;62093;37.614;15.072;2023-09-12T13:51:38;6.43;;;3.58;;
73779;SDS011;62093;37.614;15.072;2023-09-12T13:54:04;5.43;;;3.60;;
73779;SDS011;62093;37.614;15.072;2023-09-12T13:56:32;6.07;;;3.30;;
73779;SDS011;62093;37.614;15.072;2023-09-12T13:58:57;5.43;;;3.60;;
73779;SDS011;62093;37.614;15.072;2023-09-12T14:01:24;7.25;;;3.97;;
73779;SDS011;62093;37.614;15.072;2023-09-12T14:03:49;6.15;;;3.50;;
73779;SDS011;62093;37.614;15.072;2023-09-12T14:06:16;5.97;;;3.60;;
73779;SDS011;62093;37.614;15.072;2023-09-12T14:08:43;5.65;;;3.63;;
73779;SDS011;62093;37.614;15.072;2023-09-12T14:11:10;6.70;;;3.55;;
73779;SDS011;62093;37.614;15.072;2023-09-12T14:13:36;5.65;;;3.78;;
73779;SDS011;62093;37.614;15.072;2023-09-12T14:16:02;6.03;;;3.42;;
73779;SDS011;62093;37.614;15.072;2023-09-12T14:18:28;8.13;;;3.40;;
73779;SDS011;62093;37.614;15.072;2023-09-12T14:20:54;5.88;;;3.67;;
73779;SDS011;62093;37.614;15.072;2023-09-12T14:23:20;5.43;;;3.60;;
73779;SDS011;62093;37.614;15.072;2023-09-12T14:25:47;5.93;;;3.75;;
73779;SDS011;62093;37.614;15.072;2023-09-12T14:28:13;8.35;;;3.45;;
73779;SDS011;62093;37.614;15.072;2023-09-12T14:30:39;5.93;;;3.43;;
73779;SDS011;62093;37.614;15.072;2023-09-12T14:33:09;11.38;;;3.83;;
73779;SDS011;62093;37.614;15.072;2023-09-12T14:35:35;6.22;;;3.90;;
73779;SDS011;62093;37.614;15.072;2023-09-12T14:38:04;6.97;;;3.95;;
73779;SDS011;62093;37.614;15.072;2023-09-12T14:40:30;6.73;;;3.90;;
73779;SDS011;62093;37.614;15.072;2023-09-12T14:42:56;6.90;;;3.85;;
73779;SDS011;62093;37.614;15.072;2023-09-12T14:45:22;6.50;;;3.90;;
73779;SDS011;62093;37.614;15.072;2023-09-12T14:47:51;5.78;;;3.63;;
73779;SDS011;62093;37.614;15.072;2023-09-12T14:50:17;5.47;;;3.60;;
73779;SDS011;62093;37.614;15.072;2023-09-12T14:52:43;6.00;;;3.72;;
73779;SDS011;62093;37.614;15.072;2023-09-12T14:55:09;7.03;;;3.50;;
73779;SDS011;62093;37.614;15.072;2023-09-12T14:57:35;6.47;;;3.92;;
73779;SDS011;62093;37.614;15.072;2023-09-12T15:00:01;6.47;;;3.90;;